Time;durP1;ratioP1;P1;durP2;ratioP2;P2;SDS_P1;SDS_P2;PMS_P1;PMS_P2;Temp;Humidity;BMP_temperature;BMP_pressure;BME280_temperature;BME280_humidity;BME280_pressure;Samples;Min_cycle;Max_cycle;Signal;HPM_P1;HPM_P2
2022/10/05 00:00:58;;;;;;;;;;;9.70;76.70;;;;;;5059073;28;19931;-77
2022/10/05 00:03:24;;;;;;;;;;;9.70;76.30;;;;;;5046060;28;19912;-78
2022/10/05 00:05:50;;;;;;;;;;;9.70;76.30;;;;;;5078302;28;19934;-76
2022/10/05 00:08:22;;;;;;;;;;;9.70;76.30;;;;;;5060204;28;19916;-76
2022/10/05 00:10:47;;;;;;;;;;;9.70;76.40;;;;;;5056540;28;19912;-76
2022/10/05 00:13:23;;;;;;;;;;;9.60;76.30;;;;;;5093378;28;19935;-76
2022/10/05 00:15:48;;;;;;;;;;;9.60;76.40;;;;;;5062113;28;19927;-77
2022/10/05 00:18:17;;;;;;;;;;;9.60;76.40;;;;;;5043960;28;19908;-76
2022/10/05 00:20:43;;;;;;;;;;;9.60;76.50;;;;;;5062663;28;19912;-77
2022/10/05 00:23:23;;;;;;;;;;;9.60;76.40;;;;;;5061453;28;19908;-75
2022/10/05 00:25:49;;;;;;;;;;;9.50;76.40;;;;;;5047462;28;19927;-76
2022/10/05 00:28:20;;;;;;;;;;;9.60;76.50;;;;;;5074888;28;20270;-76
2022/10/05 00:30:45;;;;;;;;;;;9.60;76.50;;;;;;5048694;28;20412;-76
2022/10/05 00:33:11;;;;;;;;;;;9.50;76.40;;;;;;5057829;28;19916;-77
2022/10/05 00:35:36;;;;;;;;;;;9.60;76.50;;;;;;5062196;28;19927;-76
2022/10/05 00:38:01;;;;;;;;;;;9.50;76.40;;;;;;5064000;28;20478;-77
2022/10/05 00:40:30;;;;;;;;;;;9.50;76.40;;;;;;5042246;28;19912;-77
2022/10/05 00:42:56;;;;;;;;;;;9.50;76.40;;;;;;5062106;28;21576;-77
2022/10/05 00:45:32;;;;;;;;;;;9.50;76.40;;;;;;5077696;28;20403;-77
2022/10/05 00:47:57;;;;;;;;;;;9.50;76.50;;;;;;5072238;28;20304;-76
2022/10/05 00:50:25;;;;;;;;;;;9.50;76.40;;;;;;5076185;28;19912;-77
2022/10/05 00:53:04;;;;;;;;;;;9.50;76.40;;;;;;5081267;28;20497;-77
2022/10/05 00:55:42;;;;;;;;;;;9.50;76.40;;;;;;5059234;28;19928;-77
2022/10/05 00:58:26;;;;;;;;;;;9.50;76.40;;;;;;5080271;28;19923;-77
2022/10/05 01:00:51;;;;;;;;;;;9.50;76.40;;;;;;5059047;28;19917;-77
2022/10/05 01:03:23;;;;;;;;;;;9.50;76.50;;;;;;5075111;28;20556;-76
2022/10/05 01:05:48;;;;;;;;;;;9.50;76.50;;;;;;5075461;28;19912;-76
2022/10/05 01:08:17;;;;;;;;;;;9.60;76.60;;;;;;5062844;28;20395;-76
2022/10/05 01:11:11;;;;;;;;;;;9.50;76.50;;;;;;5080654;28;19922;-77
2022/10/05 01:13:45;;;;;;;;;;;9.50;76.50;;;;;;5008352;28;19960;-77
2022/10/05 01:16:14;;;;;;;;;;;9.50;76.40;;;;;;5076896;28;20010;-76
2022/10/05 01:18:43;;;;;;;;;;;9.60;76.60;;;;;;5076306;28;19940;-76
2022/10/05 01:21:15;;;;;;;;;;;9.50;76.40;;;;;;5050866;28;19912;-76
2022/10/05 01:23:59;;;;;;;;;;;9.60;76.60;;;;;;5083088;28;20407;-76
2022/10/05 01:26:43;;;;;;;;;;;9.50;76.40;;;;;;5066903;28;19920;-76
2022/10/05 01:29:21;;;;;;;;;;;9.60;76.50;;;;;;5068286;28;20295;-75
2022/10/05 01:32:08;;;;;;;;;;;9.60;76.50;;;;;;5081220;28;19920;-77
2022/10/05 01:34:34;;;;;;;;;;;9.60;76.50;;;;;;5078660;28;19920;-77
2022/10/05 01:37:05;;;;;;;;;;;9.50;76.40;;;;;;5067095;28;19912;-76
2022/10/05 01:39:51;;;;;;;;;;;9.60;76.50;;;;;;5078858;28;20053;-76
2022/10/05 01:42:20;;;;;;;;;;;9.60;76.60;;;;;;5065350;28;19916;-76
2022/10/05 01:44:49;;;;;;;;;;;9.50;76.50;;;;;;5066493;28;20101;-76
2022/10/05 01:47:25;;;;;;;;;;;9.60;76.50;;;;;;5062628;28;19923;-77
2022/10/05 01:50:00;;;;;;;;;;;9.60;76.50;;;;;;5043299;28;19920;-77
2022/10/05 01:52:44;;;;;;;;;;;9.60;76.60;;;;;;5050050;28;19946;-78
2022/10/05 01:55:33;;;;;;;;;;;9.60;76.60;;;;;;5058076;28;19920;-76
2022/10/05 01:58:18;;;;;;;;;;;9.60;76.60;;;;;;5032023;28;19928;-76
2022/10/05 02:00:44;;;;;;;;;;;9.60;76.60;;;;;;5083707;28;20302;-77
2022/10/05 02:03:13;;;;;;;;;;;9.60;76.60;;;;;;5062334;28;19915;-76
2022/10/05 02:06:10;;;;;;;;;;;9.60;76.60;;;;;;5049942;28;19974;-75
2022/10/05 02:08:46;;;;;;;;;;;9.60;76.60;;;;;;5061405;28;20273;-78
2022/10/05 02:11:12;;;;;;;;;;;9.60;76.60;;;;;;5063286;28;20534;-77
2022/10/05 02:13:51;;;;;;;;;;;9.60;76.60;;;;;;5066228;28;19920;-77
2022/10/05 02:16:22;;;;;;;;;;;9.60;76.60;;;;;;5046957;28;19923;-77
2022/10/05 02:18:55;;;;;;;;;;;9.60;76.50;;;;;;5066201;28;19916;-76
2022/10/05 02:21:21;;;;;;;;;;;9.60;76.50;;;;;;5062012;28;19916;-76
2022/10/05 02:23:47;;;;;;;;;;;9.60;76.50;;;;;;5045497;28;20606;-76
2022/10/05 02:26:12;;;;;;;;;;;9.60;76.50;;;;;;5079798;28;19961;-77
2022/10/05 02:28:41;;;;;;;;;;;9.60;76.60;;;;;;5079870;28;19915;-77
2022/10/05 02:31:16;;;;;;;;;;;9.60;76.60;;;;;;5079583;28;20019;-76
2022/10/05 02:33:42;;;;;;;;;;;9.60;76.60;;;;;;5064924;28;19916;-77
2022/10/05 02:36:13;;;;;;;;;;;9.60;76.70;;;;;;5048027;28;19926;-76
2022/10/05 02:38:43;;;;;;;;;;;9.60;76.60;;;;;;5065515;28;19919;-77
2022/10/05 02:41:14;;;;;;;;;;;9.60;76.70;;;;;;5062811;28;19912;-76
2022/10/05 02:43:46;;;;;;;;;;;9.60;76.70;;;;;;5050010;28;19919;-77
2022/10/05 02:46:23;;;;;;;;;;;9.70;76.70;;;;;;5080637;28;19912;-77
2022/10/05 02:48:53;;;;;;;;;;;9.70;76.70;;;;;;5063248;28;19920;-77
2022/10/05 02:51:37;;;;;;;;;;;9.70;76.60;;;;;;5059796;28;19974;-77
2022/10/05 02:54:02;;;;;;;;;;;9.70;76.60;;;;;;5062656;28;19987;-76
2022/10/05 02:56:34;;;;;;;;;;;9.70;76.60;;;;;;5082421;28;19953;-77
2022/10/05 02:59:01;;;;;;;;;;;9.70;76.60;;;;;;5063551;28;20400;-78
2022/10/05 03:01:29;;;;;;;;;;;9.70;76.60;;;;;;5062234;28;20402;-77
2022/10/05 03:03:59;;;;;;;;;;;9.70;76.60;;;;;;5046625;28;19931;-77
2022/10/05 03:06:26;;;;;;;;;;;9.70;76.60;;;;;;5081957;28;19998;-76
2022/10/05 03:09:01;;;;;;;;;;;9.70;76.60;;;;;;5045562;28;20477;-77
2022/10/05 03:11:29;;;;;;;;;;;9.70;76.60;;;;;;5051964;28;19916;-77
2022/10/05 03:14:04;;;;;;;;;;;9.70;76.60;;;;;;5079241;28;19999;-76
2022/10/05 03:16:38;;;;;;;;;;;9.70;76.70;;;;;;5097207;28;19955;-77
2022/10/05 03:19:17;;;;;;;;;;;9.70;76.70;;;;;;5066098;28;19924;-77
2022/10/05 03:21:49;;;;;;;;;;;9.70;76.70;;;;;;5063564;28;19920;-76
2022/10/05 03:24:14;;;;;;;;;;;9.70;76.70;;;;;;5064801;28;20457;-76
2022/10/05 03:26:58;;;;;;;;;;;9.70;76.60;;;;;;5079519;28;19916;-76
2022/10/05 03:29:27;;;;;;;;;;;9.70;76.70;;;;;;5079836;28;19916;-78
2022/10/05 03:31:57;;;;;;;;;;;9.70;76.70;;;;;;5079930;28;19927;-76
2022/10/05 03:34:23;;;;;;;;;;;9.70;76.70;;;;;;5059661;28;19927;-77
2022/10/05 03:36:54;;;;;;;;;;;9.70;76.70;;;;;;5078114;28;19912;-77
2022/10/05 03:39:28;;;;;;;;;;;9.70;76.70;;;;;;5060064;28;19912;-77
2022/10/05 03:42:19;;;;;;;;;;;9.70;76.70;;;;;;5079003;28;19920;-76
2022/10/05 03:44:49;;;;;;;;;;;9.70;76.80;;;;;;5043325;28;19950;-77
2022/10/05 03:47:24;;;;;;;;;;;9.70;76.80;;;;;;5071461;28;19923;-77
2022/10/05 03:49:55;;;;;;;;;;;9.70;76.80;;;;;;5076149;28;19912;-77
2022/10/05 03:52:41;;;;;;;;;;;9.70;76.80;;;;;;5077933;28;19950;-77
2022/10/05 03:55:25;;;;;;;;;;;9.70;77.20;;;;;;5077187;28;19916;-77
2022/10/05 03:57:51;;;;;;;;;;;9.60;76.80;;;;;;5068634;28;20497;-77
2022/10/05 04:00:17;;;;;;;;;;;9.60;76.80;;;;;;5064343;28;19916;-77
2022/10/05 04:02:49;;;;;;;;;;;9.60;76.80;;;;;;5052622;28;19926;-77
2022/10/05 04:05:18;;;;;;;;;;;9.60;76.90;;;;;;5075929;28;19935;-77
2022/10/05 04:07:45;;;;;;;;;;;9.60;76.80;;;;;;5062685;28;19916;-77
2022/10/05 04:10:13;;;;;;;;;;;9.60;76.80;;;;;;5064580;28;19919;-76
2022/10/05 04:12:39;;;;;;;;;;;9.60;76.90;;;;;;5047110;28;20330;-77
2022/10/05 04:15:12;;;;;;;;;;;9.60;76.90;;;;;;5049258;28;19924;-76
2022/10/05 04:17:41;;;;;;;;;;;9.60;76.90;;;;;;5064472;28;19962;-76
2022/10/05 04:20:27;;;;;;;;;;;9.60;76.90;;;;;;5055016;28;19915;-77
2022/10/05 04:23:00;;;;;;;;;;;9.60;76.90;;;;;;5110113;28;20089;-77
2022/10/05 04:25:42;;;;;;;;;;;9.60;76.90;;;;;;5077665;28;19927;-77
2022/10/05 04:28:26;;;;;;;;;;;9.60;76.90;;;;;;5059048;28;19900;-77
2022/10/05 04:30:52;;;;;;;;;;;9.60;76.90;;;;;;5082168;28;19989;-76
2022/10/05 04:33:17;;;;;;;;;;;9.60;76.90;;;;;;5089770;28;19912;-76
2022/10/05 04:35:55;;;;;;;;;;;9.50;76.90;;;;;;5079865;28;19916;-76
2022/10/05 04:38:34;;;;;;;;;;;9.50;76.90;;;;;;5076325;28;19916;-77
2022/10/05 04:41:09;;;;;;;;;;;9.50;76.90;;;;;;5084985;28;19920;-76
2022/10/05 04:43:53;;;;;;;;;;;9.50;77.00;;;;;;5088203;28;19945;-76
2022/10/05 04:46:42;;;;;;;;;;;9.50;76.90;;;;;;5084028;28;19912;-78
2022/10/05 04:49:07;;;;;;;;;;;9.50;76.90;;;;;;5071895;28;19958;-76
2022/10/05 04:52:02;;;;;;;;;;;9.50;77.00;;;;;;5079126;28;19954;-77
2022/10/05 04:54:36;;;;;;;;;;;9.50;77.00;;;;;;5081356;28;19973;-76
2022/10/05 04:57:02;;;;;;;;;;;9.50;77.00;;;;;;5095756;28;19920;-78
2022/10/05 04:59:28;;;;;;;;;;;9.50;77.00;;;;;;5078748;28;19916;-79
2022/10/05 05:02:05;;;;;;;;;;;9.50;77.00;;;;;;5094015;28;19937;-78
2022/10/05 05:04:49;;;;;;;;;;;9.50;77.00;;;;;;5075787;28;19912;-76
2022/10/05 05:07:15;;;;;;;;;;;9.50;77.10;;;;;;5098559;28;19912;-77
2022/10/05 05:09:40;;;;;;;;;;;9.50;77.10;;;;;;5077207;28;19923;-77
2022/10/05 05:12:15;;;;;;;;;;;9.50;77.10;;;;;;5092224;28;19999;-77
2022/10/05 05:14:52;;;;;;;;;;;9.40;77.00;;;;;;5089036;28;19919;-76
2022/10/05 05:17:28;;;;;;;;;;;9.40;77.00;;;;;;5089963;28;20315;-78
2022/10/05 05:20:00;;;;;;;;;;;9.40;77.00;;;;;;5067904;28;19974;-76
2022/10/05 05:22:28;;;;;;;;;;;9.40;77.10;;;;;;5074495;28;19919;-75
2022/10/05 05:25:04;;;;;;;;;;;9.40;77.10;;;;;;5072940;28;19915;-77
2022/10/05 05:27:36;;;;;;;;;;;9.40;77.10;;;;;;5075767;28;19971;-75
2022/10/05 05:30:03;;;;;;;;;;;9.40;77.00;;;;;;5089796;28;20375;-76
2022/10/05 05:32:34;;;;;;;;;;;9.40;77.00;;;;;;5071725;28;19945;-75
2022/10/05 05:35:05;;;;;;;;;;;9.40;78.00;;;;;;5068951;28;19920;-76
2022/10/05 05:37:36;;;;;;;;;;;9.40;77.10;;;;;;5058166;28;19912;-76
2022/10/05 05:40:06;;;;;;;;;;;9.40;77.10;;;;;;5090265;28;19968;-76
2022/10/05 05:43:04;;;;;;;;;;;9.40;77.20;;;;;;5074063;28;20006;-76
2022/10/05 05:45:35;;;;;;;;;;;9.40;77.20;;;;;;5051902;28;20023;-76
2022/10/05 05:48:01;;;;;;;;;;;9.40;77.20;;;;;;5090371;28;19915;-77
2022/10/05 05:50:29;;;;;;;;;;;9.40;77.20;;;;;;5108093;28;19912;-75
2022/10/05 05:52:56;;;;;;;;;;;9.40;77.20;;;;;;5070462;28;19919;-76
2022/10/05 05:55:25;;;;;;;;;;;9.40;77.20;;;;;;5055419;28;20009;-75
2022/10/05 05:57:58;;;;;;;;;;;9.40;77.30;;;;;;5059415;28;19939;-75
2022/10/05 06:00:26;;;;;;;;;;;9.30;77.20;;;;;;5058950;28;19916;-76
2022/10/05 06:03:07;;;;;;;;;;;9.30;77.20;;;;;;5108455;28;19958;-76
2022/10/05 06:05:51;;;;;;;;;;;9.40;77.30;;;;;;5088913;28;19934;-76
2022/10/05 06:08:32;;;;;;;;;;;9.30;77.20;;;;;;5085961;28;19916;-76
2022/10/05 06:11:03;;;;;;;;;;;9.30;77.20;;;;;;5083343;28;19923;-74
2022/10/05 06:13:32;;;;;;;;;;;9.30;77.20;;;;;;5085596;28;19997;-75
2022/10/05 06:16:00;;;;;;;;;;;9.30;77.20;;;;;;5101882;28;20602;-75
2022/10/05 06:18:26;;;;;;;;;;;9.30;77.20;;;;;;5059161;28;20011;-76
2022/10/05 06:21:06;;;;;;;;;;;9.30;77.20;;;;;;5076121;28;19943;-76
2022/10/05 06:23:37;;;;;;;;;;;9.30;77.20;;;;;;5061891;28;19919;-75
2022/10/05 06:26:06;;;;;;;;;;;9.30;77.20;;;;;;5059596;28;19927;-77
2022/10/05 06:28:31;;;;;;;;;;;9.40;77.30;;;;;;5076282;28;19973;-75
2022/10/05 06:30:57;;;;;;;;;;;9.40;77.30;;;;;;5088932;28;20013;-75
2022/10/05 06:33:34;;;;;;;;;;;9.40;77.30;;;;;;5072596;28;19927;-75
2022/10/05 06:35:59;;;;;;;;;;;9.40;77.30;;;;;;5089182;28;20008;-76
2022/10/05 06:38:31;;;;;;;;;;;9.40;77.30;;;;;;5088080;28;19915;-76
2022/10/05 06:41:05;;;;;;;;;;;9.40;77.30;;;;;;5093920;28;19938;-76
2022/10/05 06:43:34;;;;;;;;;;;9.40;77.30;;;;;;5108745;28;19958;-76
2022/10/05 06:46:09;;;;;;;;;;;9.40;77.30;;;;;;5096083;28;19912;-76
2022/10/05 06:48:34;;;;;;;;;;;9.40;77.30;;;;;;5085209;28;20016;-76
2022/10/05 06:51:04;;;;;;;;;;;9.40;77.30;;;;;;5092343;28;20353;-76
2022/10/05 06:53:29;;;;;;;;;;;9.40;77.30;;;;;;5070133;28;19917;-75
2022/10/05 06:55:58;;;;;;;;;;;9.40;77.30;;;;;;5084222;28;19920;-77
2022/10/05 06:58:32;;;;;;;;;;;9.50;77.40;;;;;;5053984;28;19923;-76
2022/10/05 07:00:59;;;;;;;;;;;9.40;77.30;;;;;;5084634;28;19924;-75
2022/10/05 07:03:31;;;;;;;;;;;9.50;77.30;;;;;;5102367;28;19995;-76
2022/10/05 07:06:05;;;;;;;;;;;9.40;77.30;;;;;;5069834;28;19971;-75
2022/10/05 07:08:39;;;;;;;;;;;9.40;77.30;;;;;;5061774;28;19923;-77
2022/10/05 07:11:20;;;;;;;;;;;9.40;77.30;;;;;;5076004;28;20007;-75
2022/10/05 07:13:50;;;;;;;;;;;9.40;77.30;;;;;;5094489;28;19919;-76
2022/10/05 07:16:21;;;;;;;;;;;9.50;77.40;;;;;;5072769;28;19938;-77
2022/10/05 07:18:47;;;;;;;;;;;9.50;77.30;;;;;;5095366;28;19915;-76
2022/10/05 07:21:33;;;;;;;;;;;9.50;77.30;;;;;;5078264;28;19935;-77
2022/10/05 07:24:21;;;;;;;;;;;9.50;77.30;;;;;;5095089;28;19919;-76
2022/10/05 07:26:52;;;;;;;;;;;9.50;77.20;;;;;;5086433;28;19999;-77
2022/10/05 07:29:20;;;;;;;;;;;9.50;77.30;;;;;;5072752;28;19987;-76
2022/10/05 07:31:50;;;;;;;;;;;9.60;77.40;;;;;;5073075;28;19912;-77
2022/10/05 07:34:21;;;;;;;;;;;9.60;77.40;;;;;;5092203;28;20311;-77
2022/10/05 07:39:37;;;;;;;;;;;9.60;77.30;;;;;;5074493;28;20046;-76
2022/10/05 07:42:09;;;;;;;;;;;9.60;77.40;;;;;;5073982;28;19961;-76
2022/10/05 07:44:47;;;;;;;;;;;9.70;77.30;;;;;;5059604;28;19942;-76
2022/10/05 07:47:12;;;;;;;;;;;9.70;77.30;;;;;;5072112;28;19912;-76
2022/10/05 07:49:41;;;;;;;;;;;9.80;77.40;;;;;;5089660;28;19961;-75
2022/10/05 07:52:19;;;;;;;;;;;9.80;77.30;;;;;;5055656;28;19943;-76
2022/10/05 07:55:05;;;;;;;;;;;9.80;77.30;;;;;;5058094;28;19913;-76
2022/10/05 07:57:42;;;;;;;;;;;9.90;77.30;;;;;;5087394;28;19920;-74
2022/10/05 08:00:16;;;;;;;;;;;9.90;77.20;;;;;;5089591;28;19912;-76
2022/10/05 08:02:50;;;;;;;;;;;9.90;77.20;;;;;;5063937;28;19912;-75
2022/10/05 08:05:19;;;;;;;;;;;10.00;77.20;;;;;;5069696;28;19942;-76
2022/10/05 08:07:44;;;;;;;;;;;10.00;77.20;;;;;;5087797;28;19950;-75
2022/10/05 08:10:30;;;;;;;;;;;10.00;77.10;;;;;;5061218;28;20442;-75
2022/10/05 08:13:02;;;;;;;;;;;10.10;77.10;;;;;;5074533;28;19913;-76
2022/10/05 08:15:30;;;;;;;;;;;10.10;77.10;;;;;;5072659;28;19949;-76
2022/10/05 08:18:00;;;;;;;;;;;10.20;77.10;;;;;;5071560;28;19919;-76
2022/10/05 08:20:31;;;;;;;;;;;10.30;77.10;;;;;;5069229;28;20472;-76
2022/10/05 08:23:00;;;;;;;;;;;10.30;76.90;;;;;;5089377;28;19923;-77
2022/10/05 08:25:35;;;;;;;;;;;10.30;76.90;;;;;;5073202;28;19915;-76
2022/10/05 08:28:08;;;;;;;;;;;10.40;77.00;;;;;;5085062;28;19934;-76
2022/10/05 08:30:34;;;;;;;;;;;10.50;77.10;;;;;;5068956;28;19923;-76
2022/10/05 08:33:08;;;;;;;;;;;10.50;77.80;;;;;;5069279;28;19976;-75
2022/10/05 08:35:42;;;;;;;;;;;10.60;76.90;;;;;;5067516;28;20032;-75
2022/10/05 08:38:25;;;;;;;;;;;10.60;76.90;;;;;;5073800;28;19912;-77
2022/10/05 08:41:09;;;;;;;;;;;10.70;76.80;;;;;;5048294;28;20058;-75
2022/10/05 08:43:40;;;;;;;;;;;10.80;76.80;;;;;;5085134;28;19924;-76
2022/10/05 08:46:06;;;;;;;;;;;10.80;76.70;;;;;;5083996;28;19951;-76
2022/10/05 08:49:01;;;;;;;;;;;10.90;76.70;;;;;;5085600;28;19912;-77
2022/10/05 08:51:29;;;;;;;;;;;11.00;76.70;;;;;;5070233;28;19934;-77
2022/10/05 08:54:14;;;;;;;;;;;11.00;76.60;;;;;;5081348;28;19915;-77
2022/10/05 08:56:41;;;;;;;;;;;11.10;76.60;;;;;;5079131;28;19921;-76
2022/10/05 08:59:13;;;;;;;;;;;11.10;76.50;;;;;;5068983;28;19912;-76
2022/10/05 09:01:39;;;;;;;;;;;11.20;76.50;;;;;;5068175;28;19987;-75
2022/10/05 09:04:23;;;;;;;;;;;11.20;76.50;;;;;;5084206;28;19951;-77
2022/10/05 09:06:58;;;;;;;;;;;11.30;76.40;;;;;;5082377;28;19917;-75
2022/10/05 09:09:39;;;;;;;;;;;11.40;76.40;;;;;;5085216;28;19965;-76
2022/10/05 09:12:07;;;;;;;;;;;11.40;76.30;;;;;;5062631;28;19916;-76
2022/10/05 09:14:51;;;;;;;;;;;11.50;76.30;;;;;;5086482;28;19912;-76
2022/10/05 09:17:34;;;;;;;;;;;11.60;76.40;;;;;;5084475;28;20271;-76
2022/10/05 09:20:09;;;;;;;;;;;11.80;76.30;;;;;;5050951;28;20407;-75
2022/10/05 09:22:37;;;;;;;;;;;11.90;76.20;;;;;;5085531;28;19920;-77
2022/10/05 09:25:21;;;;;;;;;;;12.00;76.10;;;;;;5068126;28;19911;-75
2022/10/05 09:27:57;;;;;;;;;;;12.20;76.10;;;;;;5073209;28;19916;-76
2022/10/05 09:30:32;;;;;;;;;;;12.40;76.00;;;;;;5082135;28;19920;-77
2022/10/05 09:33:12;;;;;;;;;;;12.60;75.80;;;;;;5083704;28;19916;-76
2022/10/05 09:35:52;;;;;;;;;;;12.80;75.60;;;;;;5081668;28;20389;-76
2022/10/05 09:38:33;;;;;;;;;;;13.00;75.40;;;;;;5074115;28;20011;-77
2022/10/05 09:40:58;;;;;;;;;;;13.30;75.30;;;;;;5090433;28;19916;-76
2022/10/05 09:43:32;;;;;;;;;;;13.50;75.10;;;;;;5087279;28;19920;-76
2022/10/05 09:46:09;;;;;;;;;;;13.70;75.00;;;;;;5055960;28;19916;-76
2022/10/05 09:48:34;;;;;;;;;;;13.90;74.90;;;;;;5072931;28;21103;-75
2022/10/05 09:51:32;;;;;;;;;;;14.20;74.60;;;;;;5087311;28;19927;-76
2022/10/05 09:54:16;;;;;;;;;;;14.40;74.50;;;;;;5064388;28;19920;-77
2022/10/05 09:57:02;;;;;;;;;;;14.70;74.20;;;;;;5063453;28;19930;-76
2022/10/05 09:59:31;;;;;;;;;;;14.90;74.00;;;;;;5090810;28;20007;-76
2022/10/05 10:02:12;;;;;;;;;;;15.20;73.70;;;;;;5089799;28;19927;-76
2022/10/05 10:05:00;;;;;;;;;;;15.40;73.50;;;;;;5075568;28;19919;-76
2022/10/05 10:08:04;;;;;;;;;;;15.70;73.30;;;;;;5086796;28;20330;-77
2022/10/05 10:10:36;;;;;;;;;;;16.00;73.10;;;;;;5049031;28;19976;-77
2022/10/05 10:13:04;;;;;;;;;;;16.30;72.80;;;;;;5028896;28;20499;-77
2022/10/05 10:15:47;;;;;;;;;;;16.60;72.70;;;;;;5069122;28;19927;-78
2022/10/05 10:18:12;;;;;;;;;;;16.80;72.40;;;;;;5088530;28;19978;-76
2022/10/05 10:20:46;;;;;;;;;;;17.10;72.20;;;;;;5069968;28;19924;-77
2022/10/05 10:23:18;;;;;;;;;;;17.20;72.00;;;;;;5089399;28;19912;-76
2022/10/05 10:25:50;;;;;;;;;;;17.40;71.90;;;;;;5071081;28;20159;-77
2022/10/05 10:28:31;;;;;;;;;;;17.70;71.70;;;;;;5088114;28;19954;-76
2022/10/05 10:30:56;;;;;;;;;;;17.80;71.40;;;;;;5088027;28;19923;-78
2022/10/05 10:33:25;;;;;;;;;;;18.00;71.30;;;;;;5091744;28;19920;-76
2022/10/05 10:35:54;;;;;;;;;;;18.20;71.20;;;;;;5076622;28;19921;-78
2022/10/05 10:38:29;;;;;;;;;;;18.40;71.10;;;;;;5086889;28;19912;-76
2022/10/05 10:41:08;;;;;;;;;;;18.50;70.90;;;;;;5086305;28;19912;-77
2022/10/05 10:43:50;;;;;;;;;;;18.70;70.80;;;;;;5087066;28;19919;-77
2022/10/05 10:46:19;;;;;;;;;;;18.90;70.70;;;;;;5105764;28;19937;-77
2022/10/05 10:48:45;;;;;;;;;;;19.00;70.50;;;;;;5086795;28;19916;-76
2022/10/05 10:51:38;;;;;;;;;;;19.30;70.40;;;;;;5091101;28;19958;-78
2022/10/05 10:54:15;;;;;;;;;;;19.50;70.30;;;;;;5083844;28;19912;-77
2022/10/05 10:56:50;;;;;;;;;;;19.70;70.00;;;;;;5062893;28;19988;-76
2022/10/05 10:59:18;;;;;;;;;;;20.00;69.80;;;;;;5091880;28;19922;-76
2022/10/05 11:01:43;;;;;;;;;;;20.20;69.70;;;;;;5074027;28;19918;-77
2022/10/05 11:04:21;;;;;;;;;;;20.40;69.40;;;;;;5094134;28;19939;-77
2022/10/05 11:06:59;;;;;;;;;;;20.60;69.20;;;;;;5087745;28;19911;-78
2022/10/05 11:09:24;;;;;;;;;;;20.80;69.10;;;;;;5105803;28;19912;-78
2022/10/05 11:11:50;;;;;;;;;;;21.00;68.80;;;;;;5088127;28;19924;-77
2022/10/05 11:14:34;;;;;;;;;;;21.20;68.60;;;;;;5091084;28;19912;-77
2022/10/05 11:17:14;;;;;;;;;;;21.40;68.40;;;;;;5108828;27;19931;-79
2022/10/05 11:19:42;;;;;;;;;;;21.60;68.30;;;;;;5084589;28;19908;-80
2022/10/05 11:22:11;;;;;;;;;;;21.80;68.10;;;;;;5059655;28;19923;-78
2022/10/05 11:24:53;;;;;;;;;;;21.90;67.80;;;;;;5092368;28;20018;-77
2022/10/05 11:27:21;;;;;;;;;;;22.00;67.70;;;;;;5073618;28;19912;-78
2022/10/05 11:29:48;;;;;;;;;;;22.00;67.60;;;;;;5109159;28;20296;-77
2022/10/05 11:32:13;;;;;;;;;;;22.20;67.70;;;;;;5091071;28;20009;-78
2022/10/05 11:34:41;;;;;;;;;;;22.40;67.70;;;;;;5107507;27;19916;-78
2022/10/05 11:37:26;;;;;;;;;;;22.60;67.40;;;;;;5088643;28;20295;-79
2022/10/05 11:39:51;;;;;;;;;;;22.70;67.20;;;;;;5055773;28;19916;-78
2022/10/05 11:42:25;;;;;;;;;;;22.90;67.10;;;;;;5071925;28;19919;-77
2022/10/05 11:45:10;;;;;;;;;;;23.10;66.80;;;;;;5092554;28;20043;-78
2022/10/05 11:47:36;;;;;;;;;;;23.30;66.70;;;;;;5087214;28;19918;-79
2022/10/05 11:50:14;;;;;;;;;;;23.50;66.60;;;;;;5092233;28;20002;-78
2022/10/05 11:52:51;;;;;;;;;;;23.70;66.40;;;;;;5086446;28;19940;-77
2022/10/05 11:55:19;;;;;;;;;;;23.90;66.10;;;;;;5081968;28;20605;-78
2022/10/05 11:57:49;;;;;;;;;;;24.10;65.90;;;;;;5072076;28;19923;-79
2022/10/05 12:00:19;;;;;;;;;;;24.20;65.70;;;;;;5076618;28;19987;-79
2022/10/05 12:02:48;;;;;;;;;;;24.30;65.60;;;;;;5044292;28;19915;-78
2022/10/05 12:05:32;;;;;;;;;;;24.40;65.40;;;;;;5043538;28;19919;-76
2022/10/05 12:08:01;;;;;;;;;;;24.50;65.40;;;;;;5062499;28;19959;-77
2022/10/05 12:10:33;;;;;;;;;;;24.60;65.30;;;;;;5023239;28;19917;-77
2022/10/05 12:13:01;;;;;;;;;;;24.70;65.20;;;;;;5042147;28;20321;-78
2022/10/05 12:15:36;;;;;;;;;;;24.80;65.10;;;;;;5052345;28;19916;-78
2022/10/05 12:18:07;;;;;;;;;;;24.80;65.00;;;;;;5039047;28;20372;-77
2022/10/05 12:20:38;;;;;;;;;;;24.90;65.00;;;;;;5042234;28;20262;-78
2022/10/05 12:23:12;;;;;;;;;;;25.00;64.90;;;;;;5029486;28;19913;-76
2022/10/05 12:25:44;;;;;;;;;;;25.00;64.80;;;;;;5057068;28;20226;-77
2022/10/05 12:28:11;;;;;;;;;;;25.10;64.80;;;;;;5036608;28;19917;-79
2022/10/05 12:30:49;;;;;;;;;;;25.20;64.80;;;;;;5059608;28;19931;-78
2022/10/05 12:33:26;;;;;;;;;;;25.20;64.80;;;;;;5043565;28;19912;-78
2022/10/05 12:35:52;;;;;;;;;;;25.30;64.70;;;;;;5038245;28;19924;-74
2022/10/05 12:38:21;;;;;;;;;;;25.40;64.70;;;;;;5067455;28;20574;-75
2022/10/05 12:41:07;;;;;;;;;;;25.50;64.60;;;;;;5055361;28;19928;-74
2022/10/05 12:43:45;;;;;;;;;;;25.60;64.50;;;;;;5025621;28;19913;-74
2022/10/05 12:46:29;;;;;;;;;;;25.70;64.40;;;;;;5032242;28;19920;-75
2022/10/05 12:48:58;;;;;;;;;;;25.70;64.30;;;;;;5055080;28;20658;-75
2022/10/05 12:51:36;;;;;;;;;;;25.80;64.20;;;;;;5057090;28;19931;-75
2022/10/05 12:54:20;;;;;;;;;;;25.80;64.20;;;;;;5058691;28;20310;-76
2022/10/05 12:56:49;;;;;;;;;;;25.90;64.20;;;;;;5053195;28;20007;-75
2022/10/05 12:59:14;;;;;;;;;;;26.00;64.10;;;;;;5035563;28;19995;-74
2022/10/05 13:01:59;;;;;;;;;;;26.10;64.00;;;;;;5055876;28;20010;-75
2022/10/05 13:04:41;;;;;;;;;;;26.10;63.90;;;;;;5055731;28;19927;-76
2022/10/05 13:07:18;;;;;;;;;;;26.20;64.00;;;;;;5035194;28;19964;-75
2022/10/05 13:09:56;;;;;;;;;;;26.20;63.90;;;;;;5056111;28;19912;-75
2022/10/05 13:12:26;;;;;;;;;;;26.30;63.90;;;;;;5033963;28;20034;-74
2022/10/05 13:14:59;;;;;;;;;;;26.40;63.70;;;;;;5043660;28;19990;-74
2022/10/05 13:17:44;;;;;;;;;;;26.40;63.70;;;;;;5068738;28;19920;-76
2022/10/05 13:20:26;;;;;;;;;;;26.50;63.60;;;;;;5058351;28;19962;-76
2022/10/05 13:22:58;;;;;;;;;;;26.50;63.50;;;;;;5037184;28;19952;-74
2022/10/05 13:25:30;;;;;;;;;;;26.60;63.50;;;;;;5039779;28;19920;-76
2022/10/05 13:28:15;;;;;;;;;;;26.70;63.50;;;;;;5023661;28;19927;-76
2022/10/05 13:30:40;;;;;;;;;;;26.80;63.50;;;;;;5058538;28;19919;-75
2022/10/05 13:33:11;;;;;;;;;;;26.90;63.50;;;;;;5041278;28;19912;-75
2022/10/05 13:35:43;;;;;;;;;;;26.90;63.30;;;;;;5040069;28;19920;-75
2022/10/05 13:38:21;;;;;;;;;;;27.00;63.20;;;;;;5040730;28;19916;-74
2022/10/05 13:40:48;;;;;;;;;;;27.10;63.20;;;;;;5057091;28;19927;-76
2022/10/05 13:43:32;;;;;;;;;;;27.10;63.10;;;;;;5041831;28;19916;-76
2022/10/05 13:46:16;;;;;;;;;;;27.20;63.00;;;;;;5056644;28;20651;-76
2022/10/05 13:49:00;;;;;;;;;;;27.20;62.90;;;;;;5040880;28;19912;-76
2022/10/05 13:51:38;;;;;;;;;;;27.30;62.90;;;;;;5055493;28;19920;-76
2022/10/05 13:54:14;;;;;;;;;;;27.30;62.90;;;;;;5053260;28;20051;-75
2022/10/05 13:56:41;;;;;;;;;;;27.40;62.80;;;;;;5041576;28;19928;-77
2022/10/05 13:59:18;;;;;;;;;;;27.40;62.80;;;;;;5076441;28;19926;-76
2022/10/05 14:02:01;;;;;;;;;;;27.50;62.80;;;;;;5078047;27;19912;-77
2022/10/05 14:04:41;;;;;;;;;;;27.50;62.80;;;;;;5058683;28;20372;-76
2022/10/05 14:07:25;;;;;;;;;;;27.50;62.70;;;;;;5057910;28;19927;-77
2022/10/05 14:09:50;;;;;;;;;;;27.60;62.60;;;;;;5061230;28;19917;-78
2022/10/05 14:12:20;;;;;;;;;;;27.70;62.60;;;;;;5077283;28;19915;-77
2022/10/05 14:14:49;;;;;;;;;;;27.70;62.50;;;;;;5072714;28;19944;-77
2022/10/05 14:17:33;;;;;;;;;;;27.70;62.40;;;;;;5057188;28;19926;-76
2022/10/05 14:19:59;;;;;;;;;;;27.70;62.40;;;;;;5091682;27;19920;-75
2022/10/05 14:22:25;;;;;;;;;;;27.70;62.50;;;;;;5073713;28;20307;-76
2022/10/05 14:24:53;;;;;;;;;;;27.80;62.40;;;;;;5074818;28;19927;-76
2022/10/05 14:27:20;;;;;;;;;;;27.80;62.40;;;;;;5045379;28;19932;-76
2022/10/05 14:29:56;;;;;;;;;;;27.80;62.40;;;;;;5074671;28;19923;-75
2022/10/05 14:32:22;;;;;;;;;;;27.90;62.30;;;;;;5072197;28;19951;-76
2022/10/05 14:35:11;;;;;;;;;;;27.90;62.30;;;;;;5076709;28;20420;-77
2022/10/05 14:37:45;;;;;;;;;;;27.80;62.30;;;;;;5056284;28;20288;-77
2022/10/05 14:40:20;;;;;;;;;;;27.90;62.20;;;;;;5046040;28;19915;-76
2022/10/05 14:42:45;;;;;;;;;;;28.00;62.20;;;;;;5091561;27;19919;-77
2022/10/05 14:45:14;;;;;;;;;;;28.00;62.10;;;;;;5076716;28;20291;-76
2022/10/05 14:47:50;;;;;;;;;;;27.90;61.90;;;;;;5088764;27;19916;-75
2022/10/05 14:50:16;;;;;;;;;;;27.80;62.00;;;;;;5054008;28;20031;-77
2022/10/05 14:52:43;;;;;;;;;;;27.80;62.10;;;;;;5061371;28;19927;-76
2022/10/05 14:55:17;;;;;;;;;;;27.80;62.10;;;;;;5089968;27;20007;-77
2022/10/05 14:57:43;;;;;;;;;;;27.70;62.00;;;;;;5069878;28;19920;-76
2022/10/05 15:00:13;;;;;;;;;;;27.60;62.00;;;;;;5076192;28;19973;-76
2022/10/05 15:02:57;;;;;;;;;;;27.60;62.20;;;;;;5055588;28;20006;-76